Time,TemperatureF,DewpointF,PressureIn,WindDirection,WindDirectionDegrees,WindSpeedMPH,WindSpeedGustMPH,Humidity,HourlyPrecipIn,Conditions,Clouds,dailyrainin,SoftwareType,DateUTC
2013-05-01 00:00:00,45.3,35.8,30.36,NNW,338,2.7,5.6,69,0.00,,---,0.00,VWS V14.01,2013-05-01 07:00:00,
2013-05-01 00:02:00,45.3,35.8,30.36,NNW,338,6.7,6.7,69,0.00,,---,0.00,VWS V14.01,2013-05-01 07:02:00,
2013-05-01 00:07:00,45.1,35.6,30.36,NE,45,3.8,6.7,69,0.00,,---,0.00,VWS V14.01,2013-05-01 07:07:00,
2013-05-01 00:10:00,45.1,35.6,30.36,ENE,68,2.2,6.7,69,0.00,,---,0.00,VWS V14.01,2013-05-01 07:10:00,
2013-05-01 00:12:00,45.1,35.6,30.36,North,0,2.9,2.9,69,0.00,,---,0.00,VWS V14.01,2013-05-01 07:12:00,
2013-05-01 00:17:00,45.0,35.4,30.36,NNW,338,1.3,3.6,69,0.00,,---,0.00,VWS V14.01,2013-05-01 07:17:00,
2013-05-01 00:20:00,45.0,35.4,30.36,SE,135,3.4,4.0,69,0.00,,---,0.00,VWS V14.01,2013-05-01 07:20:00,
2013-05-01 00:22:00,45.0,35.4,30.36,SE,135,3.4,3.4,69,0.00,,---,0.00,VWS V14.01,2013-05-01 07:22:00,
2013-05-01 00:28:00,45.0,35.4,30.36,NNE,22,2.9,6.3,69,0.00,,---,0.00,VWS V14.01,2013-05-01 07:28:00,
2013-05-01 00:30:00,45.0,35.4,30.36,NNE,22,2.5,6.3,69,0.00,,---,0.00,VWS V14.01,2013-05-01 07:30:00,
2013-05-01 00:33:00,45.0,35.4,30.36,NNE,22,2.0,5.4,69,0.00,,---,0.00,VWS V14.01,2013-05-01 07:33:00,
2013-05-01 00:38:00,45.0,35.0,30.39,North,0,4.7,7.4,68,0.00,,---,0.00,VWS V14.01,2013-05-01 07:38:00,
2013-05-01 00:40:00,45.0,35.0,30.39,NNE,22,4.0,7.4,68,0.00,,---,0.00,VWS V14.01,2013-05-01 07:40:00,
2013-05-01 00:43:00,45.0,35.0,30.39,ENE,68,3.6,4.0,68,0.00,,---,0.00,VWS V14.01,2013-05-01 07:43:00,
2013-05-01 00:49:00,44.8,34.5,30.39,NNE,22,2.0,4.0,67,0.00,,---,0.00,VWS V14.01,2013-05-01 07:49:00,
2013-05-01 00:50:00,44.8,34.5,30.39,NNE,22,3.4,4.0,67,0.00,,---,0.00,VWS V14.01,2013-05-01 07:50:00,
2013-05-01 00:54:00,44.8,34.5,30.39,NNE,22,4.5,4.5,67,0.00,,---,0.00,VWS V14.01,2013-05-01 07:54:00,
2013-05-01 00:59:00,44.8,34.5,30.39,NNE,22,2.5,7.2,67,0.00,,---,0.00,VWS V14.01,2013-05-01 07:59:00,
2013-05-01 01:00:00,44.8,34.5,30.39,NNW,338,2.7,7.2,67,0.00,,---,0.00,VWS V14.01,2013-05-01 08:00:00,
2013-05-01 01:04:00,44.8,34.5,30.39,NE,45,2.7,3.8,67,0.00,,---,0.00,VWS V14.01,2013-05-01 08:04:00,
2013-05-01 01:09:00,44.6,34.0,30.39,NNW,338,5.8,5.8,66,0.00,,---,0.00,VWS V14.01,2013-05-01 08:09:00,
2013-05-01 01:10:00,44.8,34.1,30.36,NNW,338,5.8,5.8,66,0.00,,---,0.00,VWS V14.01,2013-05-01 08:10:00,
2013-05-01 01:15:00,44.6,34.0,30.36,ESE,112,7.6,7.6,66,0.00,,---,0.00,VWS V14.01,2013-05-01 08:15:00,
2013-05-01 01:20:00,44.4,33.8,30.36,East,90,4.7,7.6,66,0.00,,---,0.00,VWS V14.01,2013-05-01 08:20:00,
2013-05-01 01:25:00,44.4,33.4,30.39,WNW,292,2.0,4.9,65,0.00,,---,0.00,VWS V14.01,2013-05-01 08:25:00,
2013-05-01 01:30:00,44.2,33.2,30.39,ESE,112,1.6,4.9,65,0.00,,---,0.00,VWS V14.01,2013-05-01 08:30:00,
2013-05-01 01:35:00,44.1,33.1,30.39,NE,45,0.0,2.2,65,0.00,,---,0.00,VWS V14.01,2013-05-01 08:35:00,
2013-05-01 01:40:00,43.9,32.9,30.39,NNW,338,1.1,2.7,65,0.00,,---,0.00,VWS V14.01,2013-05-01 08:40:00,
2013-05-01 01:41:00,43.9,32.9,30.39,NNW,338,1.1,1.1,65,0.00,,---,0.00,VWS V14.01,2013-05-01 08:41:00,
2013-05-01 01:46:00,43.5,32.9,30.39,NNW,338,2.9,2.9,66,0.00,,---,0.00,VWS V14.01,2013-05-01 08:46:00,
2013-05-01 01:50:00,43.5,32.9,30.39,NNW,338,2.0,2.9,66,0.00,,---,0.00,VWS V14.01,2013-05-01 08:50:00,
2013-05-01 01:51:00,43.5,32.9,30.39,NNW,338,0.0,2.0,66,0.00,,---,0.00,VWS V14.01,2013-05-01 08:51:00,
2013-05-01 01:56:00,43.3,32.8,30.39,NNW,338,1.1,2.9,66,0.00,,---,0.00,VWS V14.01,2013-05-01 08:56:00,
2013-05-01 02:00:00,43.2,32.6,30.39,NNE,22,1.3,2.9,66,0.00,,---,0.00,VWS V14.01,2013-05-01 09:00:00,
2013-05-01 02:01:00,43.2,32.6,30.39,NNW,338,2.9,2.9,66,0.00,,---,0.00,VWS V14.01,2013-05-01 09:01:00,
2013-05-01 02:07:00,43.0,32.4,30.39,NNW,338,2.5,3.8,66,0.00,,---,0.00,VWS V14.01,2013-05-01 09:07:00,
2013-05-01 02:10:00,43.2,33.0,30.39,NNW,338,0.9,3.8,67,0.00,,---,0.00,VWS V14.01,2013-05-01 09:10:00,
2013-05-01 02:12:00,43.0,32.8,30.39,NNW,338,1.3,1.6,67,0.00,,---,0.00,VWS V14.01,2013-05-01 09:12:00,
2013-05-01 02:17:00,43.0,32.8,30.39,NNE,22,0.0,1.6,67,0.00,,---,0.00,VWS V14.01,2013-05-01 09:17:00,
2013-05-01 02:20:00,43.0,32.8,30.39,ENE,68,0.0,1.6,67,0.00,,---,0.00,VWS V14.01,2013-05-01 09:20:00,
2013-05-01 02:22:00,43.0,32.8,30.39,ESE,112,0.9,0.9,67,0.00,,---,0.00,VWS V14.01,2013-05-01 09:22:00,
2013-05-01 02:28:00,42.6,32.4,30.39,East,90,0.0,1.6,67,0.00,,---,0.00,VWS V14.01,2013-05-01 09:28:00,
2013-05-01 02:30:00,42.6,32.4,30.39,East,90,0.0,1.6,67,0.00,,---,0.00,VWS V14.01,2013-05-01 09:30:00,
2013-05-01 02:33:00,42.4,32.3,30.39,NE,45,0.9,0.9,67,0.00,,---,0.00,VWS V14.01,2013-05-01 09:33:00,
2013-05-01 02:38:00,42.1,32.3,30.39,NNE,22,0.0,0.9,68,0.00,,---,0.00,VWS V14.01,2013-05-01 09:38:00,
2013-05-01 02:40:00,42.1,32.3,30.39,NNE,22,2.7,3.4,68,0.00,,---,0.00,VWS V14.01,2013-05-01 09:40:00,
2013-05-01 02:43:00,42.1,32.3,30.39,NNW,338,1.6,2.7,68,0.00,,---,0.00,VWS V14.01,2013-05-01 09:43:00,
2013-05-01 02:48:00,42.1,32.3,30.39,NNW,338,0.0,2.7,68,0.00,,---,0.00,VWS V14.01,2013-05-01 09:48:00,
2013-05-01 02:50:00,42.1,32.3,30.39,ENE,68,0.0,2.7,68,0.00,,---,0.00,VWS V14.01,2013-05-01 09:50:00,
2013-05-01 02:54:00,42.1,32.3,30.39,NNE,22,0.0,0.0,68,0.00,,---,0.00,VWS V14.01,2013-05-01 09:54:00,
2013-05-01 02:59:00,41.9,32.1,30.39,NE,45,0.9,2.7,68,0.00,,---,0.00,VWS V14.01,2013-05-01 09:59:00,
2013-05-01 03:00:00,41.9,32.1,30.39,NW,315,2.5,2.7,68,0.00,,---,0.00,VWS V14.01,2013-05-01 10:00:00,
2013-05-01 03:04:00,41.9,32.1,30.39,NW,315,0.0,2.5,68,0.00,,---,0.00,VWS V14.01,2013-05-01 10:04:00,
2013-05-01 03:09:00,41.9,32.1,30.39,East,90,2.5,2.5,68,0.00,,---,0.00,VWS V14.01,2013-05-01 10:09:00,
2013-05-01 03:10:00,41.9,32.1,30.36,NNE,22,0.0,2.5,68,0.00,,---,0.00,VWS V14.01,2013-05-01 10:10:00,
2013-05-01 03:14:00,41.9,32.1,30.36,SSW,202,0.0,2.9,68,0.00,,---,0.00,VWS V14.01,2013-05-01 10:14:00,
2013-05-01 03:20:00,41.9,32.5,30.36,NNE,22,1.6,2.9,69,0.00,,---,0.00,VWS V14.01,2013-05-01 10:20:00,
2013-05-01 03:25:00,41.9,32.5,30.36,NE,45,0.0,0.0,69,0.00,,---,0.00,VWS V14.01,2013-05-01 10:25:00,
2013-05-01 03:30:00,41.7,32.3,30.36,NE,45,0.0,0.0,69,0.00,,---,0.00,VWS V14.01,2013-05-01 10:30:00,
2013-05-01 03:35:00,41.5,32.1,30.36,NNE,22,1.3,1.3,69,0.00,,---,0.00,VWS V14.01,2013-05-01 10:35:00,
2013-05-01 03:40:00,41.5,32.1,30.36,East,90,1.3,2.9,69,0.00,,---,0.00,VWS V14.01,2013-05-01 10:40:00,
2013-05-01 03:46:00,41.5,32.5,30.36,NNW,338,0.0,1.3,70,0.00,,---,0.00,VWS V14.01,2013-05-01 10:46:00,
2013-05-01 03:50:00,41.5,32.5,30.36,NNW,338,0.9,1.3,70,0.00,,---,0.00,VWS V14.01,2013-05-01 10:50:00,
2013-05-01 03:51:00,41.5,32.5,30.36,ENE,68,1.1,1.1,70,0.00,,---,0.00,VWS V14.01,2013-05-01 10:51:00,
2013-05-01 03:56:00,41.4,32.3,30.36,NNW,338,0.0,2.7,70,0.00,,---,0.00,VWS V14.01,2013-05-01 10:56:00,
2013-05-01 04:00:00,41.4,32.3,30.36,NNW,338,2.7,2.9,70,0.00,,---,0.00,VWS V14.01,2013-05-01 11:00:00,
2013-05-01 04:01:00,41.4,32.3,30.36,NNW,338,1.6,2.7,70,0.00,,---,0.00,VWS V14.01,2013-05-01 11:01:00,
2013-05-01 04:07:00,41.5,32.8,30.39,WNW,292,3.4,3.4,71,0.00,,---,0.00,VWS V14.01,2013-05-01 11:07:00,
2013-05-01 04:10:00,41.7,33.0,30.39,NNE,22,3.6,3.6,71,0.00,,---,0.00,VWS V14.01,2013-05-01 11:10:00,
2013-05-01 04:12:00,41.7,33.0,30.39,WNW,292,2.7,3.6,71,0.00,,---,0.00,VWS V14.01,2013-05-01 11:12:00,
2013-05-01 04:17:00,41.7,33.0,30.39,NNW,338,0.0,3.6,71,0.00,,---,0.00,VWS V14.01,2013-05-01 11:17:00,
2013-05-01 04:20:00,41.7,33.0,30.39,NNW,338,0.9,3.6,71,0.00,,---,0.00,VWS V14.01,2013-05-01 11:20:00,
2013-05-01 04:22:00,41.7,33.4,30.39,NNW,338,3.1,3.8,72,0.00,,---,0.00,VWS V14.01,2013-05-01 11:22:00,
2013-05-01 04:27:00,41.7,33.4,30.39,NNW,338,1.6,5.4,72,0.00,,---,0.00,VWS V14.01,2013-05-01 11:27:00,
2013-05-01 04:30:00,41.7,33.4,30.39,North,0,2.5,5.4,72,0.00,,---,0.00,VWS V14.01,2013-05-01 11:30:00,
2013-05-01 04:33:00,41.7,33.4,30.39,NNW,338,2.5,3.1,72,0.00,,---,0.00,VWS V14.01,2013-05-01 11:33:00,
2013-05-01 04:38:00,41.7,33.4,30.36,ENE,68,4.3,4.3,72,0.00,,---,0.00,VWS V14.01,2013-05-01 11:38:00,
2013-05-01 04:40:00,41.7,33.4,30.36,NNE,22,0.0,4.3,72,0.00,,---,0.00,VWS V14.01,2013-05-01 11:40:00,
2013-05-01 04:43:00,41.7,33.4,30.36,ENE,68,2.2,2.7,72,0.00,,---,0.00,VWS V14.01,2013-05-01 11:43:00,
2013-05-01 04:48:00,41.4,33.0,30.36,WNW,292,0.0,2.7,72,0.00,,---,0.00,VWS V14.01,2013-05-01 11:48:00,
2013-05-01 04:50:00,41.4,33.0,30.36,ESE,112,0.0,2.7,72,0.00,,---,0.00,VWS V14.01,2013-05-01 11:50:00,
2013-05-01 04:54:00,41.0,32.7,30.39,ESE,112,0.0,1.6,72,0.00,,---,0.00,VWS V14.01,2013-05-01 11:54:00,
2013-05-01 04:59:00,40.5,32.2,30.39,ESE,112,0.0,1.6,72,0.00,,---,0.00,VWS V14.01,2013-05-01 11:59:00,
2013-05-01 05:00:00,40.5,32.2,30.39,ESE,112,0.0,1.6,72,0.00,,---,0.00,VWS V14.01,2013-05-01 12:00:00,
2013-05-01 05:04:00,40.5,32.5,30.39,ESE,112,0.0,0.0,73,0.00,,---,0.00,VWS V14.01,2013-05-01 12:04:00,
2013-05-01 05:09:00,40.3,32.3,30.39,East,90,0.0,0.0,73,0.00,,---,0.00,VWS V14.01,2013-05-01 12:09:00,
2013-05-01 05:10:00,40.1,32.2,30.39,East,90,0.0,0.0,73,0.00,,---,0.00,VWS V14.01,2013-05-01 12:10:00,
2013-05-01 05:14:00,40.1,32.2,30.39,NNE,22,0.0,0.0,73,0.00,,---,0.00,VWS V14.01,2013-05-01 12:14:00,
2013-05-01 05:20:00,39.9,32.3,30.39,NNE,22,0.0,0.0,74,0.00,,---,0.00,VWS V14.01,2013-05-01 12:20:00,
2013-05-01 05:25:00,39.9,32.3,30.39,NNE,22,0.0,0.0,74,0.00,,---,0.00,VWS V14.01,2013-05-01 12:25:00,
2013-05-01 05:30:00,39.7,32.1,30.39,NNE,22,0.0,0.0,74,0.00,,---,0.00,VWS V14.01,2013-05-01 12:30:00,
2013-05-01 05:35:00,39.0,31.5,30.39,NNE,22,0.0,0.0,74,0.00,,---,0.00,VWS V14.01,2013-05-01 12:35:00,
2013-05-01 05:40:00,38.5,30.9,30.39,NE,45,0.0,0.0,74,0.00,,---,0.00,VWS V14.01,2013-05-01 12:40:00,
2013-05-01 05:46:00,38.5,31.3,30.39,NE,45,0.0,0.0,75,0.00,,---,0.00,VWS V14.01,2013-05-01 12:46:00,
2013-05-01 05:50:00,38.5,31.3,30.39,NE,45,0.0,0.0,75,0.00,,---,0.00,VWS V14.01,2013-05-01 12:50:00,
2013-05-01 05:51:00,38.3,31.1,30.39,NE,45,0.0,0.0,75,0.00,,---,0.00,VWS V14.01,2013-05-01 12:51:00,
2013-05-01 05:56:00,37.9,30.7,30.39,NE,45,0.0,0.0,75,0.00,,---,0.00,VWS V14.01,2013-05-01 12:56:00,
2013-05-01 06:00:00,37.8,30.6,30.39,NE,45,0.0,0.0,75,0.00,,---,0.00,VWS V14.01,2013-05-01 13:00:00,
2013-05-01 06:01:00,37.6,30.4,30.39,NE,45,0.0,0.0,75,0.00,,---,0.00,VWS V14.01,2013-05-01 13:01:00,
2013-05-01 06:06:00,37.4,30.2,30.39,NE,45,0.0,0.0,75,0.00,,---,0.00,VWS V14.01,2013-05-01 13:06:00,
2013-05-01 06:10:00,37.4,30.5,30.39,NE,45,0.0,0.0,76,0.00,,---,0.00,VWS V14.01,2013-05-01 13:10:00,
2013-05-01 06:12:00,37.6,30.7,30.39,NE,45,0.0,0.0,76,0.00,,---,0.00,VWS V14.01,2013-05-01 13:12:00,
2013-05-01 06:17:00,37.6,30.7,30.39,NE,45,0.0,0.0,76,0.00,,---,0.00,VWS V14.01,2013-05-01 13:17:00,
2013-05-01 06:20:00,37.4,30.9,30.39,NE,45,0.0,0.0,77,0.00,,---,0.00,VWS V14.01,2013-05-01 13:20:00,
2013-05-01 06:22:00,37.4,30.9,30.39,NE,45,0.0,0.0,77,0.00,,---,0.00,VWS V14.01,2013-05-01 13:22:00,
2013-05-01 06:27:00,37.4,30.9,30.39,NE,45,0.0,0.0,77,0.00,,---,0.00,VWS V14.01,2013-05-01 13:27:00,
2013-05-01 06:30:00,37.4,30.9,30.39,NE,45,0.0,0.0,77,0.00,,---,0.00,VWS V14.01,2013-05-01 13:30:00,
2013-05-01 06:33:00,37.2,30.7,30.39,East,90,0.0,0.0,77,0.00,,---,0.00,VWS V14.01,2013-05-01 13:33:00,
2013-05-01 06:38:00,36.9,30.3,30.39,ESE,112,0.0,0.0,77,0.00,,---,0.00,VWS V14.01,2013-05-01 13:38:00,
2013-05-01 06:40:00,36.9,30.3,30.39,ESE,112,0.0,0.0,77,0.00,,---,0.00,VWS V14.01,2013-05-01 13:40:00,
2013-05-01 06:43:00,36.9,30.3,30.39,ESE,112,0.0,0.0,77,0.00,,---,0.00,VWS V14.01,2013-05-01 13:43:00,
2013-05-01 06:48:00,37.0,30.8,30.39,ESE,112,0.0,0.0,78,0.00,,---,0.00,VWS V14.01,2013-05-01 13:48:00,
2013-05-01 06:50:00,36.9,30.6,30.39,ESE,112,0.0,0.0,78,0.00,,---,0.00,VWS V14.01,2013-05-01 13:50:00,
2013-05-01 06:53:00,37.0,30.8,30.39,ESE,112,0.0,0.0,78,0.00,,---,0.00,VWS V14.01,2013-05-01 13:53:00,
2013-05-01 06:59:00,37.2,31.3,30.39,ESE,112,0.0,0.0,79,0.00,,---,0.00,VWS V14.01,2013-05-01 13:59:00,
2013-05-01 07:00:00,37.4,31.5,30.39,ESE,112,0.0,0.0,79,0.00,,---,0.00,VWS V14.01,2013-05-01 14:00:00,
2013-05-01 07:04:00,37.8,31.8,30.39,ESE,112,0.0,0.0,79,0.00,,---,0.00,VWS V14.01,2013-05-01 14:04:00,
2013-05-01 07:09:00,37.9,32.3,30.39,ESE,112,0.0,0.0,80,0.00,,---,0.00,VWS V14.01,2013-05-01 14:09:00,
2013-05-01 07:10:00,37.9,32.3,30.39,ESE,112,0.0,0.0,80,0.00,,---,0.00,VWS V14.01,2013-05-01 14:10:00,
2013-05-01 07:14:00,38.1,32.5,30.39,NE,45,0.0,0.0,80,0.00,,---,0.00,VWS V14.01,2013-05-01 14:14:00,
2013-05-01 07:19:00,38.7,33.3,30.39,NNE,22,0.0,0.0,81,0.00,,---,0.00,VWS V14.01,2013-05-01 14:19:00,
2013-05-01 07:20:00,38.7,33.3,30.39,NNE,22,0.0,0.0,81,0.00,,---,0.00,VWS V14.01,2013-05-01 14:20:00,
2013-05-01 07:25:00,39.2,33.9,30.39,NNE,22,0.0,0.0,81,0.00,,---,0.00,VWS V14.01,2013-05-01 14:25:00,
2013-05-01 07:30:00,39.7,34.4,30.39,NNE,22,0.0,0.0,81,0.00,,---,0.00,VWS V14.01,2013-05-01 14:30:00,
2013-05-01 07:35:00,40.5,35.4,30.39,WNW,292,0.0,0.0,82,0.00,,---,0.00,VWS V14.01,2013-05-01 14:35:00,
2013-05-01 07:40:00,41.2,35.8,30.39,NNW,338,1.6,1.6,81,0.00,,---,0.00,VWS V14.01,2013-05-01 14:40:00,
2013-05-01 07:46:00,41.9,36.2,30.39,NNW,338,0.0,2.7,80,0.00,,---,0.00,VWS V14.01,2013-05-01 14:46:00,
2013-05-01 07:50:00,42.1,36.0,30.39,NNW,338,2.0,2.9,79,0.00,,---,0.00,VWS V14.01,2013-05-01 14:50:00,
2013-05-01 07:51:00,42.4,36.1,30.39,NNW,338,2.0,2.0,78,0.00,,---,0.00,VWS V14.01,2013-05-01 14:51:00,
2013-05-01 07:56:00,43.0,36.3,30.39,NNW,338,1.3,2.5,77,0.00,,---,0.00,VWS V14.01,2013-05-01 14:56:00,
2013-05-01 08:00:00,43.3,36.6,30.39,NW,315,1.6,3.1,77,0.00,,---,0.00,VWS V14.01,2013-05-01 15:00:00,
2013-05-01 08:01:00,43.7,36.6,30.39,NNW,338,2.5,2.5,76,0.00,,---,0.00,VWS V14.01,2013-05-01 15:01:00,
2013-05-01 08:06:00,44.1,37.0,30.39,NNW,338,2.9,4.0,76,0.00,,---,0.00,VWS V14.01,2013-05-01 15:06:00,
2013-05-01 08:10:00,44.4,37.0,30.39,NNE,22,2.2,4.0,75,0.00,,---,0.00,VWS V14.01,2013-05-01 15:10:00,
2013-05-01 08:12:00,44.6,37.2,30.39,NNW,338,2.7,2.7,75,0.00,,---,0.00,VWS V14.01,2013-05-01 15:12:00,
2013-05-01 08:17:00,45.0,37.2,30.39,NNW,338,2.0,5.4,74,0.00,,---,0.00,VWS V14.01,2013-05-01 15:17:00,
2013-05-01 08:20:00,45.1,37.0,30.39,NNW,338,4.7,5.4,73,0.00,,---,0.00,VWS V14.01,2013-05-01 15:20:00,
2013-05-01 08:22:00,45.5,37.4,30.39,NNW,338,2.9,4.7,73,0.00,,---,0.00,VWS V14.01,2013-05-01 15:22:00,
2013-05-01 08:27:00,45.9,37.4,30.39,NNE,22,2.5,4.7,72,0.00,,---,0.00,VWS V14.01,2013-05-01 15:27:00,
2013-05-01 08:30:00,46.0,37.2,30.39,NNW,338,2.5,4.7,71,0.00,,---,0.00,VWS V14.01,2013-05-01 15:30:00,
2013-05-01 08:33:00,46.0,36.8,30.39,NNW,338,2.5,2.7,70,0.00,,---,0.00,VWS V14.01,2013-05-01 15:33:00,
2013-05-01 08:38:00,46.6,36.6,30.39,NNE,22,1.6,2.9,68,0.00,,---,0.00,VWS V14.01,2013-05-01 15:38:00,
2013-05-01 08:40:00,46.6,36.6,30.39,NNW,338,3.1,4.9,68,0.00,,---,0.00,VWS V14.01,2013-05-01 15:40:00,
2013-05-01 08:43:00,46.8,36.8,30.39,North,0,2.5,3.4,68,0.00,,---,0.00,VWS V14.01,2013-05-01 15:43:00,
2013-05-01 08:48:00,47.3,36.9,30.39,WNW,292,2.0,4.3,67,0.00,,---,0.00,VWS V14.01,2013-05-01 15:48:00,
2013-05-01 08:50:00,47.5,36.7,30.39,NNW,338,2.2,4.3,66,0.00,,---,0.00,VWS V14.01,2013-05-01 15:50:00,
2013-05-01 08:53:00,47.7,36.9,30.39,NNE,22,1.6,5.4,66,0.00,,---,0.00,VWS V14.01,2013-05-01 15:53:00,
2013-05-01 08:59:00,48.0,36.4,30.39,NNW,338,1.1,5.4,64,0.00,,---,0.00,VWS V14.01,2013-05-01 15:59:00,
2013-05-01 09:00:00,48.2,36.6,30.39,NNW,338,2.5,5.4,64,0.00,,---,0.00,VWS V14.01,2013-05-01 16:00:00,
2013-05-01 09:04:00,48.6,37.0,30.39,NW,315,3.6,3.6,64,0.00,,---,0.00,VWS V14.01,2013-05-01 16:04:00,
2013-05-01 09:09:00,48.7,36.3,30.39,WNW,292,3.8,5.6,62,0.00,,---,0.00,VWS V14.01,2013-05-01 16:09:00,
2013-05-01 09:10:00,48.7,36.3,30.39,WNW,292,5.8,5.8,62,0.00,,---,0.00,VWS V14.01,2013-05-01 16:10:00,
2013-05-01 09:14:00,49.1,36.2,30.39,NW,315,6.0,6.0,61,0.00,,---,0.00,VWS V14.01,2013-05-01 16:14:00,
2013-05-01 09:19:00,49.3,36.4,30.39,NNW,338,3.8,6.0,61,0.00,,---,0.00,VWS V14.01,2013-05-01 16:19:00,
2013-05-01 09:20:00,49.3,36.4,30.39,NW,315,4.0,6.0,61,0.00,,---,0.00,VWS V14.01,2013-05-01 16:20:00,
2013-05-01 09:25:00,49.5,35.7,30.39,WNW,292,6.3,7.4,59,0.00,,---,0.00,VWS V14.01,2013-05-01 16:25:00,
2013-05-01 09:30:00,49.6,35.9,30.39,NNW,338,4.0,7.4,59,0.00,,---,0.00,VWS V14.01,2013-05-01 16:30:00,
2013-05-01 09:35:00,49.8,35.7,30.39,NW,315,2.5,8.1,58,0.00,,---,0.00,VWS V14.01,2013-05-01 16:35:00,
2013-05-01 09:40:00,50.2,36.4,30.39,NNW,338,2.9,8.1,59,0.00,,---,0.00,VWS V14.01,2013-05-01 16:40:00,
2013-05-01 09:45:00,50.7,36.5,30.39,NW,315,4.3,4.3,58,0.00,,---,0.00,VWS V14.01,2013-05-01 16:45:00,
2013-05-01 09:50:00,50.7,36.1,30.39,WNW,292,4.3,7.4,57,0.00,,---,0.00,VWS V14.01,2013-05-01 16:50:00,
2013-05-01 09:51:00,50.7,36.1,30.39,NW,315,4.9,4.9,57,0.00,,---,0.00,VWS V14.01,2013-05-01 16:51:00,
2013-05-01 09:56:00,50.9,35.8,30.39,West,270,6.9,6.9,56,0.00,,---,0.00,VWS V14.01,2013-05-01 16:56:00,
2013-05-01 10:00:00,51.1,36.4,30.39,NNW,338,7.8,7.8,57,0.00,,---,0.00,VWS V14.01,2013-05-01 17:00:00,
2013-05-01 10:01:00,51.1,36.4,30.39,WNW,292,6.0,7.8,57,0.00,,---,0.00,VWS V14.01,2013-05-01 17:01:00,
2013-05-01 10:06:00,51.3,36.6,30.36,WNW,292,6.0,7.8,57,0.00,,---,0.00,VWS V14.01,2013-05-01 17:06:00,
2013-05-01 10:10:00,51.4,36.3,30.36,WNW,292,4.0,8.1,56,0.00,,---,0.00,VWS V14.01,2013-05-01 17:10:00,
2013-05-01 10:12:00,51.6,36.5,30.36,NW,315,8.1,8.1,56,0.00,,---,0.00,VWS V14.01,2013-05-01 17:12:00,
2013-05-01 10:17:00,51.8,36.2,30.36,WNW,292,3.1,8.1,55,0.00,,---,0.00,VWS V14.01,2013-05-01 17:17:00,
2013-05-01 10:20:00,52.2,37.0,30.36,WNW,292,6.3,8.1,56,0.00,,---,0.00,VWS V14.01,2013-05-01 17:20:00,
2013-05-01 10:22:00,52.2,37.0,30.36,NNW,338,4.7,6.3,56,0.00,,---,0.00,VWS V14.01,2013-05-01 17:22:00,
2013-05-01 10:27:00,52.3,36.7,30.36,WNW,292,6.5,6.5,55,0.00,,---,0.00,VWS V14.01,2013-05-01 17:27:00,
2013-05-01 10:30:00,52.2,37.0,30.36,NW,315,2.9,6.5,56,0.00,,---,0.00,VWS V14.01,2013-05-01 17:30:00,
2013-05-01 10:32:00,52.3,37.1,30.36,NW,315,6.0,6.0,56,0.00,,---,0.00,VWS V14.01,2013-05-01 17:32:00,
2013-05-01 10:38:00,51.6,36.5,30.36,NNW,338,5.4,10.5,56,0.00,,---,0.00,VWS V14.01,2013-05-01 17:38:00,
2013-05-01 10:40:00,51.8,37.1,30.36,NNW,338,7.8,10.5,57,0.00,,---,0.00,VWS V14.01,2013-05-01 17:40:00,
2013-05-01 10:43:00,51.8,37.1,30.36,NNW,338,7.6,7.8,57,0.00,,---,0.00,VWS V14.01,2013-05-01 17:43:00,
2013-05-01 10:48:00,51.8,36.6,30.36,NNW,338,7.8,7.8,56,0.00,,---,0.00,VWS V14.01,2013-05-01 17:48:00,
2013-05-01 10:50:00,51.8,36.6,30.36,NNW,338,7.2,7.8,56,0.00,,---,0.00,VWS V14.01,2013-05-01 17:50:00,
2013-05-01 10:53:00,51.8,36.6,30.39,NNW,338,3.1,7.2,56,0.00,,---,0.00,VWS V14.01,2013-05-01 17:53:00,
2013-05-01 10:58:00,51.8,37.1,30.39,WNW,292,4.0,7.8,57,0.00,,---,0.00,VWS V14.01,2013-05-01 17:58:00,
2013-05-01 11:00:00,51.8,37.1,30.39,NW,315,4.3,7.8,57,0.00,,---,0.00,VWS V14.01,2013-05-01 18:00:00,
2013-05-01 11:04:00,51.6,36.9,30.39,NW,315,3.8,8.5,57,0.00,,---,0.00,VWS V14.01,2013-05-01 18:04:00,
2013-05-01 11:09:00,51.8,37.1,30.39,NNW,338,7.6,8.5,57,0.00,,---,0.00,VWS V14.01,2013-05-01 18:09:00,
2013-05-01 11:10:00,51.8,37.1,30.39,NNW,338,7.6,8.5,57,0.00,,---,0.00,VWS V14.01,2013-05-01 18:10:00,
2013-05-01 11:14:00,51.8,36.6,30.39,West,270,5.4,7.6,56,0.00,,---,0.00,VWS V14.01,2013-05-01 18:14:00,
2013-05-01 11:19:00,52.0,36.8,30.39,NNW,338,3.8,7.6,56,0.00,,---,0.00,VWS V14.01,2013-05-01 18:19:00,
2013-05-01 11:20:00,52.0,36.8,30.39,NNW,338,4.3,7.6,56,0.00,,---,0.00,VWS V14.01,2013-05-01 18:20:00,
2013-05-01 11:25:00,52.2,37.0,30.39,NNW,338,4.3,6.5,56,0.00,,---,0.00,VWS V14.01,2013-05-01 18:25:00,
2013-05-01 11:30:00,52.2,37.4,30.39,NNE,22,10.3,10.3,57,0.00,,---,0.00,VWS V14.01,2013-05-01 18:30:00,
2013-05-01 11:35:00,52.5,38.2,30.39,WNW,292,10.5,10.5,58,0.00,,---,0.00,VWS V14.01,2013-05-01 18:35:00,
2013-05-01 11:40:00,52.2,37.8,30.39,NNW,338,9.6,10.5,58,0.00,,---,0.00,VWS V14.01,2013-05-01 18:40:00,
2013-05-01 11:45:00,52.2,38.3,30.39,NNW,338,3.6,12.3,59,0.00,,---,0.00,VWS V14.01,2013-05-01 18:45:00,
2013-05-01 11:50:00,52.0,38.5,30.39,NNW,338,4.3,12.3,60,0.00,,---,0.00,VWS V14.01,2013-05-01 18:50:00,
2013-05-01 11:51:00,51.8,38.4,30.39,NNW,338,4.3,4.3,60,0.00,,---,0.00,VWS V14.01,2013-05-01 18:51:00,
2013-05-01 11:56:00,52.2,38.7,30.39,NW,315,6.0,6.0,60,0.00,,---,0.00,VWS V14.01,2013-05-01 18:56:00,
2013-05-01 12:00:00,52.3,38.9,30.39,WNW,292,2.5,6.3,60,0.00,,---,0.00,VWS V14.01,2013-05-01 19:00:00,
2013-05-01 12:01:00,52.5,39.0,30.39,WNW,292,2.5,2.5,60,0.00,,---,0.00,VWS V14.01,2013-05-01 19:01:00,
2013-05-01 12:06:00,52.7,39.2,30.39,NNE,22,2.5,5.4,60,0.00,,---,0.00,VWS V14.01,2013-05-01 19:06:00,
2013-05-01 12:10:00,52.5,38.6,30.39,NNE,22,2.5,5.4,59,0.00,,---,0.00,VWS V14.01,2013-05-01 19:10:00,
2013-05-01 12:11:00,52.5,38.6,30.39,NNE,22,2.5,2.5,59,0.00,,---,0.00,VWS V14.01,2013-05-01 19:11:00,
2013-05-01 12:17:00,52.5,38.6,30.39,NNE,22,2.5,2.5,59,0.00,,---,0.00,VWS V14.01,2013-05-01 19:17:00,
2013-05-01 12:20:00,52.5,38.2,30.39,NW,315,3.4,3.4,58,0.00,,---,0.00,VWS V14.01,2013-05-01 19:20:00,
2013-05-01 12:22:00,52.7,38.8,30.39,NW,315,3.4,3.4,59,0.00,,---,0.00,VWS V14.01,2013-05-01 19:22:00,
2013-05-01 12:27:00,52.7,39.2,30.39,NNW,338,8.5,8.5,60,0.00,,---,0.00,VWS V14.01,2013-05-01 19:27:00,
2013-05-01 12:30:00,52.7,39.6,30.39,NNW,338,5.8,8.5,61,0.00,,---,0.00,VWS V14.01,2013-05-01 19:30:00,
2013-05-01 12:32:00,52.9,39.8,30.39,ENE,68,4.3,5.8,61,0.00,,---,0.00,VWS V14.01,2013-05-01 19:32:00,
2013-05-01 12:38:00,52.7,39.2,30.39,NNW,338,3.8,7.8,60,0.00,,---,0.00,VWS V14.01,2013-05-01 19:38:00,
2013-05-01 12:40:00,52.9,39.4,30.39,WNW,292,7.4,7.8,60,0.00,,---,0.00,VWS V14.01,2013-05-01 19:40:00,
2013-05-01 12:43:00,52.9,39.4,30.39,NW,315,5.4,7.4,60,0.00,,---,0.00,VWS V14.01,2013-05-01 19:43:00,
2013-05-01 12:48:00,52.9,38.5,30.39,NNW,338,3.6,7.4,58,0.00,,---,0.00,VWS V14.01,2013-05-01 19:48:00,
2013-05-01 12:50:00,52.7,38.3,30.39,WNW,292,2.9,7.4,58,0.00,,---,0.00,VWS V14.01,2013-05-01 19:50:00,
2013-05-01 12:53:00,52.9,38.5,30.36,NNW,338,4.9,4.9,58,0.00,,---,0.00,VWS V14.01,2013-05-01 19:53:00,
2013-05-01 12:58:00,52.9,39.0,30.36,NNE,22,7.8,10.3,59,0.00,,---,0.00,VWS V14.01,2013-05-01 19:58:00,
2013-05-01 13:00:00,52.9,39.0,30.36,WNW,292,7.6,10.3,59,0.00,,---,0.00,VWS V14.01,2013-05-01 20:00:00,
2013-05-01 13:04:00,53.1,39.6,30.36,NNW,338,5.8,7.6,60,0.00,,---,0.00,VWS V14.01,2013-05-01 20:04:00,
2013-05-01 13:09:00,53.2,39.7,30.39,NNE,22,6.9,7.6,60,0.00,,---,0.00,VWS V14.01,2013-05-01 20:09:00,
2013-05-01 13:10:00,53.2,39.7,30.39,NNW,338,9.6,9.6,60,0.00,,---,0.00,VWS V14.01,2013-05-01 20:10:00,
2013-05-01 13:14:00,53.1,39.1,30.39,NNW,338,5.8,9.6,59,0.00,,---,0.00,VWS V14.01,2013-05-01 20:14:00,
2013-05-01 13:19:00,53.2,39.3,30.39,NNE,22,10.3,10.3,59,0.00,,---,0.00,VWS V14.01,2013-05-01 20:19:00,
2013-05-01 13:20:00,53.2,39.3,30.39,NNE,22,10.3,10.3,59,0.00,,---,0.00,VWS V14.01,2013-05-01 20:20:00,
2013-05-01 13:24:00,53.1,39.1,30.36,NNE,22,10.3,10.3,59,0.00,,---,0.00,VWS V14.01,2013-05-01 20:24:00,
2013-05-01 13:30:00,52.9,39.0,30.36,WNW,292,3.4,10.3,59,0.00,,---,0.00,VWS V14.01,2013-05-01 20:30:00,
2013-05-01 13:35:00,52.7,38.8,30.36,NNW,338,6.5,6.5,59,0.00,,---,0.00,VWS V14.01,2013-05-01 20:35:00,
2013-05-01 13:40:00,52.9,39.4,30.36,NNW,338,6.3,6.5,60,0.00,,---,0.00,VWS V14.01,2013-05-01 20:40:00,
2013-05-01 13:45:00,53.1,39.1,30.36,NNW,338,6.3,6.3,59,0.00,,---,0.00,VWS V14.01,2013-05-01 20:45:00,
2013-05-01 13:50:00,53.4,39.9,30.36,NNW,338,11.0,11.0,60,0.00,,---,0.00,VWS V14.01,2013-05-01 20:50:00,
2013-05-01 13:51:00,53.4,39.9,30.36,NNW,338,11.0,11.0,60,0.00,,---,0.00,VWS V14.01,2013-05-01 20:51:00,
2013-05-01 13:56:00,53.4,39.9,30.36,NNW,338,6.5,11.0,60,0.00,,---,0.00,VWS V14.01,2013-05-01 20:56:00,
2013-05-01 14:00:00,53.6,39.6,30.36,WNW,292,5.6,11.0,59,0.00,,---,0.00,VWS V14.01,2013-05-01 21:00:00,
2013-05-01 14:01:00,53.6,39.6,30.36,WNW,292,5.6,5.6,59,0.00,,---,0.00,VWS V14.01,2013-05-01 21:01:00,
2013-05-01 14:06:00,53.6,39.6,30.36,WNW,292,6.0,9.0,59,0.00,,---,0.00,VWS V14.01,2013-05-01 21:06:00,
2013-05-01 14:10:00,53.6,39.6,30.36,NNW,338,9.0,9.0,59,0.00,,---,0.00,VWS V14.01,2013-05-01 21:10:00,
2013-05-01 14:11:00,53.4,39.5,30.36,NNW,338,9.0,9.0,59,0.00,,---,0.00,VWS V14.01,2013-05-01 21:11:00,
2013-05-01 14:17:00,53.8,39.8,30.36,NNW,338,2.9,9.0,59,0.00,,---,0.00,VWS V14.01,2013-05-01 21:17:00,
2013-05-01 14:20:00,53.4,39.0,30.36,NNW,338,2.9,9.0,58,0.00,,---,0.00,VWS V14.01,2013-05-01 21:20:00,
2013-05-01 14:22:00,53.8,39.4,30.36,NNW,338,5.6,6.0,58,0.00,,---,0.00,VWS V14.01,2013-05-01 21:22:00,
2013-05-01 14:27:00,54.0,39.5,30.36,NNW,338,8.5,8.5,58,0.00,,---,0.00,VWS V14.01,2013-05-01 21:27:00,
2013-05-01 14:30:00,53.8,39.4,30.36,NNE,22,7.6,8.5,58,0.00,,---,0.00,VWS V14.01,2013-05-01 21:30:00,
2013-05-01 14:32:00,54.0,39.5,30.36,NNW,338,4.9,7.6,58,0.00,,---,0.00,VWS V14.01,2013-05-01 21:32:00,
2013-05-01 14:37:00,53.8,39.4,30.36,NNW,338,5.8,7.6,58,0.00,,---,0.00,VWS V14.01,2013-05-01 21:37:00,
2013-05-01 14:40:00,53.8,39.4,30.36,WNW,292,4.3,8.5,58,0.00,,---,0.00,VWS V14.01,2013-05-01 21:40:00,
2013-05-01 14:43:00,53.8,38.9,30.36,WNW,292,5.6,5.6,57,0.00,,---,0.00,VWS V14.01,2013-05-01 21:43:00,
2013-05-01 14:48:00,54.1,39.7,30.36,North,0,8.1,8.1,58,0.00,,---,0.00,VWS V14.01,2013-05-01 21:48:00,
2013-05-01 14:50:00,54.0,39.1,30.36,NW,315,6.5,8.1,57,0.00,,---,0.00,VWS V14.01,2013-05-01 21:50:00,
2013-05-01 14:53:00,54.1,39.7,30.36,NNW,338,4.9,7.6,58,0.00,,---,0.00,VWS V14.01,2013-05-01 21:53:00,
2013-05-01 14:58:00,54.0,39.1,30.36,NNW,338,4.0,7.6,57,0.00,,---,0.00,VWS V14.01,2013-05-01 21:58:00,
2013-05-01 15:00:00,54.0,39.1,30.36,NNW,338,4.0,7.6,57,0.00,,---,0.00,VWS V14.01,2013-05-01 22:00:00,
2013-05-01 15:04:00,54.0,39.5,30.36,WNW,292,4.0,4.0,58,0.00,,---,0.00,VWS V14.01,2013-05-01 22:04:00,
2013-05-01 15:09:00,54.1,39.3,30.36,NNW,338,6.7,7.8,57,0.00,,---,0.00,VWS V14.01,2013-05-01 22:09:00,
2013-05-01 15:10:00,54.1,39.3,30.36,WNW,292,5.8,7.8,57,0.00,,---,0.00,VWS V14.01,2013-05-01 22:10:00,
2013-05-01 15:14:00,54.3,39.4,30.36,WNW,292,5.8,5.8,57,0.00,,---,0.00,VWS V14.01,2013-05-01 22:14:00,
2013-05-01 15:19:00,54.9,39.9,30.36,WNW,292,6.3,7.6,57,0.00,,---,0.00,VWS V14.01,2013-05-01 22:19:00,
2013-05-01 15:24:00,54.9,39.5,30.36,NNW,338,8.7,8.7,56,0.00,,---,0.00,VWS V14.01,2013-05-01 22:24:00,
2013-05-01 15:30:00,54.7,38.8,30.36,WNW,292,4.7,8.7,55,0.00,,---,0.00,VWS V14.01,2013-05-01 22:30:00,
2013-05-01 15:35:00,54.9,39.0,30.36,NNW,338,2.7,7.6,55,0.00,,---,0.00,VWS V14.01,2013-05-01 22:35:00,
2013-05-01 15:40:00,54.7,38.8,30.36,NNW,338,5.6,10.7,55,0.00,,---,0.00,VWS V14.01,2013-05-01 22:40:00,
2013-05-01 15:45:00,54.7,38.8,30.36,NNW,338,6.3,12.5,55,0.00,,---,0.00,VWS V14.01,2013-05-01 22:45:00,
2013-05-01 15:50:00,55.2,39.8,30.36,NNW,338,5.6,5.6,56,0.00,,---,0.00,VWS V14.01,2013-05-01 22:50:00,
2013-05-01 15:56:00,55.2,39.8,30.36,NNW,338,8.5,9.6,56,0.00,,---,0.00,VWS V14.01,2013-05-01 22:56:00,
2013-05-01 16:00:00,55.2,39.8,30.36,NNW,338,3.8,9.6,56,0.00,,---,0.00,VWS V14.01,2013-05-01 23:00:00,
2013-05-01 16:01:00,55.2,39.8,30.36,NNE,22,7.6,7.6,56,0.00,,---,0.00,VWS V14.01,2013-05-01 23:01:00,
2013-05-01 16:06:00,55.0,39.2,30.36,NNW,338,8.7,10.5,55,0.00,,---,0.00,VWS V14.01,2013-05-01 23:06:00,
2013-05-01 16:10:00,55.6,40.2,30.36,NNW,338,3.6,10.5,56,0.00,,---,0.00,VWS V14.01,2013-05-01 23:10:00,
2013-05-01 16:11:00,55.6,40.2,30.36,North,0,10.1,10.1,56,0.00,,---,0.00,VWS V14.01,2013-05-01 23:11:00,
2013-05-01 16:17:00,55.0,39.2,30.36,NNW,338,5.6,10.3,55,0.00,,---,0.00,VWS V14.01,2013-05-01 23:17:00,
2013-05-01 16:20:00,54.9,39.0,30.36,WNW,292,6.7,10.3,55,0.00,,---,0.00,VWS V14.01,2013-05-01 23:20:00,
2013-05-01 16:22:00,55.0,39.7,30.36,WNW,292,3.8,6.9,56,0.00,,---,0.00,VWS V14.01,2013-05-01 23:22:00,
2013-05-01 16:27:00,54.9,39.0,30.36,NNE,22,3.8,7.6,55,0.00,,---,0.00,VWS V14.01,2013-05-01 23:27:00,
2013-05-01 16:30:00,54.9,39.0,30.36,NNW,338,8.1,9.8,55,0.00,,---,0.00,VWS V14.01,2013-05-01 23:30:00,
2013-05-01 16:32:00,55.0,39.7,30.36,NNW,338,4.9,8.1,56,0.00,,---,0.00,VWS V14.01,2013-05-01 23:32:00,
2013-05-01 16:37:00,54.7,38.8,30.33,NNE,22,6.0,8.7,55,0.00,,---,0.00,VWS V14.01,2013-05-01 23:37:00,
2013-05-01 16:40:00,55.2,39.8,30.33,WNW,292,7.4,8.7,56,0.00,,---,0.00,VWS V14.01,2013-05-01 23:40:00,
2013-05-01 16:43:00,55.4,39.5,30.33,NNW,338,4.0,7.8,55,0.00,,---,0.00,VWS V14.01,2013-05-01 23:43:00,
2013-05-01 16:48:00,55.4,39.5,30.33,WNW,292,8.1,8.1,55,0.00,,---,0.00,VWS V14.01,2013-05-01 23:48:00,
2013-05-01 16:50:00,55.0,38.7,30.33,West,270,8.5,8.5,54,0.00,,---,0.00,VWS V14.01,2013-05-01 23:50:00,
2013-05-01 16:53:00,55.0,39.2,30.33,WNW,292,3.1,8.5,55,0.00,,---,0.00,VWS V14.01,2013-05-01 23:53:00,
2013-05-01 16:58:00,55.2,39.3,30.33,NNE,22,3.1,8.5,55,0.00,,---,0.00,VWS V14.01,2013-05-01 23:58:00,
2013-05-01 17:00:00,55.6,39.2,30.33,WNW,292,3.8,8.5,54,0.00,,---,0.00,VWS V14.01,2013-05-02 00:00:00,
2013-05-01 17:03:00,55.2,38.9,30.33,North,0,5.8,5.8,54,0.00,,---,0.00,VWS V14.01,2013-05-02 00:03:00,
2013-05-01 17:09:00,55.0,38.7,30.33,NE,45,7.2,7.2,54,0.00,,---,0.00,VWS V14.01,2013-05-02 00:09:00,
2013-05-01 17:10:00,55.0,38.7,30.33,NNE,22,3.1,7.2,54,0.00,,---,0.00,VWS V14.01,2013-05-02 00:10:00,
2013-05-01 17:14:00,55.2,39.3,30.33,NW,315,7.6,7.6,55,0.00,,---,0.00,VWS V14.01,2013-05-02 00:14:00,
2013-05-01 17:19:00,55.2,38.9,30.33,NNW,338,9.4,11.4,54,0.00,,---,0.00,VWS V14.01,2013-05-02 00:19:00,
2013-05-01 17:20:00,55.2,38.9,30.33,NNW,338,9.4,11.4,54,0.00,,---,0.00,VWS V14.01,2013-05-02 00:20:00,
2013-05-01 17:24:00,55.2,38.9,30.33,NNE,22,5.6,9.4,54,0.00,,---,0.00,VWS V14.01,2013-05-02 00:24:00,
2013-05-01 17:30:00,55.2,38.9,30.33,NNW,338,4.9,11.0,54,0.00,,---,0.00,VWS V14.01,2013-05-02 00:30:00,
2013-05-01 17:35:00,55.0,38.2,30.33,NNW,338,5.8,11.0,53,0.00,,---,0.00,VWS V14.01,2013-05-02 00:35:00,
2013-05-01 17:40:00,55.4,38.6,30.33,NNW,338,2.9,11.2,53,0.00,,---,0.00,VWS V14.01,2013-05-02 00:40:00,
2013-05-01 17:45:00,55.6,38.7,30.33,NNW,338,7.8,12.5,53,0.00,,---,0.00,VWS V14.01,2013-05-02 00:45:00,
2013-05-01 17:50:00,55.0,38.2,30.33,WNW,292,3.6,12.5,53,0.00,,---,0.00,VWS V14.01,2013-05-02 00:50:00,
2013-05-01 17:56:00,55.0,38.7,30.33,NW,315,3.6,13.0,54,0.00,,---,0.00,VWS V14.01,2013-05-02 00:56:00,
2013-05-01 18:00:00,55.6,39.2,30.33,NNE,22,6.0,13.0,54,0.00,,---,0.00,VWS V14.01,2013-05-02 01:00:00,
2013-05-01 18:01:00,55.6,39.2,30.33,NNW,338,6.5,6.5,54,0.00,,---,0.00,VWS V14.01,2013-05-02 01:01:00,
2013-05-01 18:06:00,55.0,39.2,30.30,NNW,338,5.4,10.5,55,0.00,,---,0.00,VWS V14.01,2013-05-02 01:06:00,
2013-05-01 18:10:00,55.0,39.2,30.30,NNE,22,3.4,10.7,55,0.00,,---,0.00,VWS V14.01,2013-05-02 01:10:00,
2013-05-01 18:11:00,55.0,39.2,30.30,NNE,22,3.4,3.4,55,0.00,,---,0.00,VWS V14.01,2013-05-02 01:11:00,
2013-05-01 18:16:00,54.5,39.1,30.30,WNW,292,4.3,7.4,56,0.00,,---,0.00,VWS V14.01,2013-05-02 01:16:00,
2013-05-01 18:20:00,54.3,39.0,30.30,WNW,292,4.3,7.4,56,0.00,,---,0.00,VWS V14.01,2013-05-02 01:20:00,
2013-05-01 18:22:00,54.1,38.8,30.30,WNW,292,4.3,4.3,56,0.00,,---,0.00,VWS V14.01,2013-05-02 01:22:00,
2013-05-01 18:27:00,53.6,38.8,30.30,NE,45,6.3,13.0,57,0.00,,---,0.00,VWS V14.01,2013-05-02 01:27:00,
2013-05-01 18:30:00,53.4,39.0,30.30,NNE,22,5.4,13.0,58,0.00,,---,0.00,VWS V14.01,2013-05-02 01:30:00,
2013-05-01 18:32:00,53.2,38.9,30.30,WSW,248,3.4,5.4,58,0.00,,---,0.00,VWS V14.01,2013-05-02 01:32:00,
2013-05-01 18:37:00,53.2,38.9,30.30,NNW,338,4.9,9.4,58,0.00,,---,0.00,VWS V14.01,2013-05-02 01:37:00,
2013-05-01 18:40:00,53.2,39.3,30.30,NNW,338,4.9,9.4,59,0.00,,---,0.00,VWS V14.01,2013-05-02 01:40:00,
2013-05-01 18:43:00,53.6,39.6,30.30,North,0,6.9,6.9,59,0.00,,---,0.00,VWS V14.01,2013-05-02 01:43:00,
2013-05-01 18:48:00,53.4,39.5,30.30,NNW,338,5.8,13.2,59,0.00,,---,0.00,VWS V14.01,2013-05-02 01:48:00,
2013-05-01 18:50:00,53.6,39.6,30.30,NNW,338,7.8,13.2,59,0.00,,---,0.00,VWS V14.01,2013-05-02 01:50:00,
2013-05-01 18:53:00,53.6,39.2,30.30,ENE,68,3.1,7.8,58,0.00,,---,0.00,VWS V14.01,2013-05-02 01:53:00,
2013-05-01 18:58:00,53.8,39.4,30.30,NNE,22,3.6,7.8,58,0.00,,---,0.00,VWS V14.01,2013-05-02 01:58:00,
2013-05-01 19:00:00,53.8,39.4,30.30,WNW,292,6.5,7.8,58,0.00,,---,0.00,VWS V14.01,2013-05-02 02:00:00,
2013-05-01 19:03:00,53.4,39.0,30.30,WNW,292,3.6,8.1,58,0.00,,---,0.00,VWS V14.01,2013-05-02 02:03:00,
2013-05-01 19:09:00,53.1,38.7,30.30,NW,315,4.9,8.5,58,0.00,,---,0.00,VWS V14.01,2013-05-02 02:09:00,
2013-05-01 19:10:00,53.1,38.7,30.30,NNW,338,10.7,10.7,58,0.00,,---,0.00,VWS V14.01,2013-05-02 02:10:00,
2013-05-01 19:14:00,53.1,38.7,30.30,WNW,292,6.0,10.7,58,0.00,,---,0.00,VWS V14.01,2013-05-02 02:14:00,
2013-05-01 19:19:00,52.9,38.5,30.30,North,0,8.5,10.7,58,0.00,,---,0.00,VWS V14.01,2013-05-02 02:19:00,
2013-05-01 19:20:00,52.9,38.5,30.30,WNW,292,4.9,10.7,58,0.00,,---,0.00,VWS V14.01,2013-05-02 02:20:00,
2013-05-01 19:24:00,52.7,38.3,30.30,NNW,338,5.6,5.6,58,0.00,,---,0.00,VWS V14.01,2013-05-02 02:24:00,
2013-05-01 19:29:00,52.5,38.2,30.30,WNW,292,2.9,7.4,58,0.00,,---,0.00,VWS V14.01,2013-05-02 02:29:00,
2013-05-01 19:30:00,52.5,38.2,30.30,WNW,292,2.9,7.4,58,0.00,,---,0.00,VWS V14.01,2013-05-02 02:30:00,
2013-05-01 19:35:00,52.5,38.2,30.30,North,0,5.8,6.0,58,0.00,,---,0.00,VWS V14.01,2013-05-02 02:35:00,
2013-05-01 19:40:00,52.5,38.2,30.30,NNE,22,2.5,6.0,58,0.00,,---,0.00,VWS V14.01,2013-05-02 02:40:00,
2013-05-01 19:45:00,52.5,38.6,30.30,WNW,292,3.8,5.4,59,0.00,,---,0.00,VWS V14.01,2013-05-02 02:45:00,
2013-05-01 19:50:00,52.5,38.6,30.30,NNW,338,3.1,3.1,59,0.00,,---,0.00,VWS V14.01,2013-05-02 02:50:00,
2013-05-01 19:56:00,52.5,38.6,30.30,WNW,292,2.5,3.8,59,0.00,,---,0.00,VWS V14.01,2013-05-02 02:56:00,
2013-05-01 20:00:00,52.3,38.9,30.30,NNW,338,4.0,4.0,60,0.00,,---,0.00,VWS V14.01,2013-05-02 03:00:00,
2013-05-01 20:01:00,52.3,38.9,30.30,NNW,338,4.0,4.0,60,0.00,,---,0.00,VWS V14.01,2013-05-02 03:01:00,
2013-05-01 20:06:00,52.0,39.0,30.30,NNW,338,4.7,4.7,61,0.00,,---,0.00,VWS V14.01,2013-05-02 03:06:00,
2013-05-01 20:10:00,51.8,38.8,30.30,NNW,338,4.0,6.5,61,0.00,,---,0.00,VWS V14.01,2013-05-02 03:10:00,
2013-05-01 20:11:00,51.8,38.8,30.30,NNE,22,2.2,4.0,61,0.00,,---,0.00,VWS V14.01,2013-05-02 03:11:00,
2013-05-01 20:16:00,51.6,39.0,30.30,NNW,338,1.3,4.0,62,0.00,,---,0.00,VWS V14.01,2013-05-02 03:16:00,
2013-05-01 20:20:00,51.4,38.9,30.30,WNW,292,0.0,4.0,62,0.00,,---,0.00,VWS V14.01,2013-05-02 03:20:00,
2013-05-01 20:22:00,51.4,38.9,30.30,NNE,22,3.6,3.6,62,0.00,,---,0.00,VWS V14.01,2013-05-02 03:22:00,
2013-05-01 20:27:00,51.3,39.1,30.30,NNW,338,1.1,3.6,63,0.00,,---,0.00,VWS V14.01,2013-05-02 03:27:00,
2013-05-01 20:30:00,51.1,38.9,30.30,NNW,338,2.5,3.8,63,0.00,,---,0.00,VWS V14.01,2013-05-02 03:30:00,
2013-05-01 20:32:00,51.1,39.3,30.30,NNW,338,2.5,2.5,64,0.00,,---,0.00,VWS V14.01,2013-05-02 03:32:00,
2013-05-01 20:37:00,50.7,39.4,30.30,WNW,292,3.4,4.9,65,0.00,,---,0.00,VWS V14.01,2013-05-02 03:37:00,
2013-05-01 20:40:00,50.7,39.4,30.30,NNE,22,3.4,6.3,65,0.00,,---,0.00,VWS V14.01,2013-05-02 03:40:00,
2013-05-01 20:42:00,50.4,39.5,30.30,NNW,338,4.3,4.3,66,0.00,,---,0.00,VWS V14.01,2013-05-02 03:42:00,
2013-05-01 20:48:00,50.2,39.7,30.30,WNW,292,2.9,7.6,67,0.00,,---,0.00,VWS V14.01,2013-05-02 03:48:00,
2013-05-01 20:50:00,50.0,39.5,30.30,NNW,338,4.0,7.6,67,0.00,,---,0.00,VWS V14.01,2013-05-02 03:50:00,
2013-05-01 20:53:00,50.0,39.9,30.30,North,0,2.9,4.0,68,0.00,,---,0.00,VWS V14.01,2013-05-02 03:53:00,
2013-05-01 20:58:00,49.8,40.1,30.30,NNW,338,1.3,4.0,69,0.00,,---,0.00,VWS V14.01,2013-05-02 03:58:00,
2013-05-01 21:00:00,49.6,39.9,30.30,NNW,338,3.6,6.0,69,0.00,,---,0.00,VWS V14.01,2013-05-02 04:00:00,
2013-05-01 21:01:00,49.6,39.9,30.30,NNW,338,3.6,3.6,69,0.00,,---,0.00,VWS V14.01,2013-05-02 04:01:00,
2013-05-01 21:02:00,49.6,40.3,30.30,NNW,338,3.6,3.6,70,0.00,,---,0.00,VWS V14.01,2013-05-02 04:02:00,
2013-05-01 21:03:00,49.6,40.3,30.30,NNW,338,3.6,3.6,70,0.00,,---,0.00,VWS V14.01,2013-05-02 04:03:00,
2013-05-01 21:08:00,49.6,40.6,30.30,NW,315,1.1,4.7,71,0.00,,---,0.00,VWS V14.01,2013-05-02 04:08:00,
2013-05-01 21:10:00,49.6,40.6,30.30,NNW,338,4.3,4.7,71,0.00,,---,0.00,VWS V14.01,2013-05-02 04:10:00,
2013-05-01 21:14:00,49.5,40.5,30.30,NNW,338,2.0,4.3,71,0.00,,---,0.00,VWS V14.01,2013-05-02 04:14:00,
2013-05-01 21:19:00,49.5,40.8,30.30,NNW,338,2.9,4.3,72,0.00,,---,0.00,VWS V14.01,2013-05-02 04:19:00,
2013-05-01 21:20:00,49.5,40.8,30.30,NNW,338,1.3,4.3,72,0.00,,---,0.00,VWS V14.01,2013-05-02 04:20:00,
2013-05-01 21:24:00,49.3,40.7,30.33,NNW,338,3.4,3.4,72,0.00,,---,0.00,VWS V14.01,2013-05-02 04:24:00,
2013-05-01 21:29:00,49.3,41.0,30.33,NNW,338,0.0,3.4,73,0.00,,---,0.00,VWS V14.01,2013-05-02 04:29:00,
2013-05-01 21:30:00,49.3,41.0,30.33,NNW,338,0.0,3.4,73,0.00,,---,0.00,VWS V14.01,2013-05-02 04:30:00,
2013-05-01 21:35:00,49.3,41.0,30.33,NNW,338,2.5,2.5,73,0.00,,---,0.00,VWS V14.01,2013-05-02 04:35:00,
2013-05-01 21:40:00,49.3,41.0,30.33,NNW,338,2.0,2.5,73,0.00,,---,0.00,VWS V14.01,2013-05-02 04:40:00,
2013-05-01 21:45:00,49.1,40.8,30.33,WNW,292,3.1,3.1,73,0.00,,---,0.00,VWS V14.01,2013-05-02 04:45:00,
2013-05-01 21:50:00,49.1,40.8,30.33,WNW,292,2.9,4.3,73,0.00,,---,0.00,VWS V14.01,2013-05-02 04:50:00,
2013-05-01 21:55:00,48.9,41.0,30.33,NNW,338,2.9,4.0,74,0.00,,---,0.00,VWS V14.01,2013-05-02 04:55:00,
2013-05-01 22:00:00,48.9,41.0,30.33,NNW,338,2.2,4.0,74,0.00,,---,0.00,VWS V14.01,2013-05-02 05:00:00,
2013-05-01 22:01:00,48.9,41.0,30.33,NNW,338,2.2,2.2,74,0.00,,---,0.00,VWS V14.01,2013-05-02 05:01:00,
2013-05-01 22:06:00,48.9,41.4,30.33,NNW,338,0.9,2.9,75,0.00,,---,0.00,VWS V14.01,2013-05-02 05:06:00,
2013-05-01 22:10:00,48.9,41.4,30.33,NNW,338,1.3,4.0,75,0.00,,---,0.00,VWS V14.01,2013-05-02 05:10:00,
2013-05-01 22:11:00,48.9,41.4,30.33,NNE,22,0.0,1.3,75,0.00,,---,0.00,VWS V14.01,2013-05-02 05:11:00,
2013-05-01 22:16:00,48.7,41.2,30.33,NNW,338,0.0,1.3,75,0.00,,---,0.00,VWS V14.01,2013-05-02 05:16:00,
2013-05-01 22:20:00,48.7,41.2,30.33,NNW,338,0.0,1.3,75,0.00,,---,0.00,VWS V14.01,2013-05-02 05:20:00,
2013-05-01 22:21:00,48.6,41.0,30.33,NNW,338,0.0,0.0,75,0.00,,---,0.00,VWS V14.01,2013-05-02 05:21:00,
2013-05-01 22:27:00,48.4,41.2,30.33,NNW,338,2.2,2.2,76,0.00,,---,0.00,VWS V14.01,2013-05-02 05:27:00,
2013-05-01 22:30:00,48.2,41.0,30.33,NNW,338,0.0,2.2,76,0.00,,---,0.00,VWS V14.01,2013-05-02 05:30:00,
2013-05-01 22:32:00,48.2,41.0,30.33,NNW,338,0.0,1.6,76,0.00,,---,0.00,VWS V14.01,2013-05-02 05:32:00,
2013-05-01 22:37:00,48.2,41.0,30.33,NNW,338,0.0,1.6,76,0.00,,---,0.00,VWS V14.01,2013-05-02 05:37:00,
2013-05-01 22:40:00,48.2,41.3,30.33,NNW,338,0.0,1.6,77,0.00,,---,0.00,VWS V14.01,2013-05-02 05:40:00,
2013-05-01 22:42:00,48.0,41.2,30.33,NW,315,0.0,0.0,77,0.00,,---,0.00,VWS V14.01,2013-05-02 05:42:00,
2013-05-01 22:48:00,47.8,40.7,30.33,East,90,0.0,0.9,76,0.00,,---,0.00,VWS V14.01,2013-05-02 05:48:00,
2013-05-01 22:50:00,47.8,40.7,30.33,East,90,0.0,0.9,76,0.00,,---,0.00,VWS V14.01,2013-05-02 05:50:00,
2013-05-01 22:53:00,47.7,40.5,30.33,East,90,0.0,0.0,76,0.00,,---,0.00,VWS V14.01,2013-05-02 05:53:00,
2013-05-01 22:58:00,47.5,40.6,30.33,WSW,248,1.6,1.6,77,0.00,,---,0.00,VWS V14.01,2013-05-02 05:58:00,
2013-05-01 23:00:00,47.5,40.6,30.33,SSW,202,0.0,1.6,77,0.00,,---,0.00,VWS V14.01,2013-05-02 06:00:00,
2013-05-01 23:03:00,47.3,40.5,30.33,SSW,202,0.0,0.0,77,0.00,,---,0.00,VWS V14.01,2013-05-02 06:03:00,
2013-05-01 23:08:00,47.1,40.3,30.33,WSW,248,0.0,0.0,77,0.00,,---,0.00,VWS V14.01,2013-05-02 06:08:00,
2013-05-01 23:10:00,47.1,40.3,30.33,South,180,0.0,0.0,77,0.00,,---,0.00,VWS V14.01,2013-05-02 06:10:00,
2013-05-01 23:14:00,47.1,40.3,30.33,NNW,338,0.0,1.1,77,0.00,,---,0.00,VWS V14.01,2013-05-02 06:14:00,
2013-05-01 23:19:00,46.9,40.5,30.33,NW,315,2.0,2.7,78,0.00,,---,0.00,VWS V14.01,2013-05-02 06:19:00,
2013-05-01 23:20:00,47.3,40.8,30.33,NNE,22,2.0,2.7,78,0.00,,---,0.00,VWS V14.01,2013-05-02 06:20:00,
2013-05-01 23:24:00,47.5,41.0,30.33,NNE,22,1.3,2.0,78,0.00,,---,0.00,VWS V14.01,2013-05-02 06:24:00,
2013-05-01 23:29:00,47.7,41.2,30.33,NNE,22,4.3,4.3,78,0.00,,---,0.00,VWS V14.01,2013-05-02 06:29:00,
2013-05-01 23:30:00,47.7,41.5,30.33,NNW,338,1.6,4.3,79,0.00,,---,0.00,VWS V14.01,2013-05-02 06:30:00,
2013-05-01 23:34:00,47.8,42.0,30.33,NNE,22,2.0,2.0,80,0.00,,---,0.00,VWS V14.01,2013-05-02 06:34:00,
2013-05-01 23:40:00,47.8,42.3,30.33,NW,315,2.0,3.8,81,0.00,,---,0.00,VWS V14.01,2013-05-02 06:40:00,
2013-05-01 23:45:00,47.8,42.6,30.33,NW,315,2.9,2.9,82,0.00,,---,0.00,VWS V14.01,2013-05-02 06:45:00,
2013-05-01 23:50:00,47.8,42.6,30.33,ENE,68,0.0,4.3,82,0.00,,---,0.00,VWS V14.01,2013-05-02 06:50:00,
2013-05-01 23:55:00,47.8,42.9,30.33,NNE,22,0.0,1.1,83,0.00,,---,0.00,VWS V14.01,2013-05-02 06:55:00,